createdAt,value
2024-04-11T00:00:25.053Z,1022.07
2024-04-11T00:01:25.339Z,1022.07
2024-04-11T00:02:25.249Z,1022.11
2024-04-11T00:03:25.332Z,1022.04
2024-04-11T00:04:25.409Z,1022.07
2024-04-11T00:05:25.300Z,1022.12
2024-04-11T00:06:25.324Z,1022.10
2024-04-11T00:07:25.379Z,1022.13
2024-04-11T00:08:25.470Z,1022.18
2024-04-11T00:09:25.468Z,1022.14
2024-04-11T00:10:25.522Z,1022.14
2024-04-11T00:11:25.658Z,1022.12
2024-04-11T00:12:25.738Z,1022.14
2024-04-11T00:13:25.680Z,1022.12
2024-04-11T00:14:25.784Z,1022.12
2024-04-11T00:15:25.778Z,1022.12
2024-04-11T00:16:25.912Z,1022.11
2024-04-11T00:17:26.014Z,1022.08
2024-04-11T00:18:26.265Z,1022.08
2024-04-11T00:19:25.963Z,1022.04
2024-04-11T00:20:26.020Z,1022.06
2024-04-11T00:21:26.072Z,1022.06
2024-04-11T00:22:26.118Z,1022.04
2024-04-11T00:23:26.207Z,1022.05
2024-04-11T00:24:26.217Z,1022.00
2024-04-11T00:25:26.272Z,1022.06
2024-04-11T00:26:26.330Z,1022.01
2024-04-11T00:27:26.375Z,1022.05
2024-04-11T00:28:26.507Z,1022.03
2024-04-11T00:29:26.490Z,1021.97
2024-04-11T00:30:26.527Z,1021.93
2024-04-11T00:31:26.560Z,1021.90
2024-04-11T00:32:26.884Z,1021.92
2024-04-11T00:33:26.918Z,1021.92
2024-04-11T00:34:26.917Z,1021.90
2024-04-11T00:35:26.826Z,1021.96
2024-04-11T00:36:26.810Z,1021.92
2024-04-11T00:37:27.246Z,1021.89
2024-04-11T00:38:26.995Z,1021.86
2024-04-11T00:39:26.954Z,1021.85
2024-04-11T00:40:27.004Z,1021.82
2024-04-11T00:41:27.079Z,1021.84
2024-04-11T00:42:27.100Z,1021.87
2024-04-11T00:43:27.154Z,1021.87
2024-04-11T00:44:27.259Z,1021.86
2024-04-11T00:45:27.251Z,1021.85
2024-04-11T00:46:27.301Z,1021.92
2024-04-11T00:47:27.479Z,1021.88
2024-04-11T00:48:27.522Z,1021.88
2024-04-11T00:49:27.571Z,1021.89
2024-04-11T00:50:27.563Z,1021.87
2024-04-11T00:51:27.557Z,1021.84
2024-04-11T00:52:27.606Z,1021.85
2024-04-11T00:53:27.658Z,1021.86
2024-04-11T00:54:27.693Z,1021.88
2024-04-11T00:55:27.741Z,1021.88
2024-04-11T00:56:27.833Z,1021.92
2024-04-11T00:57:27.838Z,1021.84
2024-04-11T00:58:27.906Z,1021.88
2024-04-11T00:59:27.982Z,1021.88
2024-04-11T01:00:27.992Z,1021.92
2024-04-11T01:01:28.090Z,1021.88
2024-04-11T01:02:28.162Z,1021.90
2024-04-11T01:03:28.340Z,1021.89
2024-04-11T01:04:28.351Z,1021.89
2024-04-11T01:05:28.313Z,1021.91
2024-04-11T01:06:28.282Z,1021.92
2024-04-11T01:07:28.337Z,1021.96
2024-04-11T01:08:28.403Z,1021.96
2024-04-11T01:09:28.451Z,1021.97
2024-04-11T01:10:28.504Z,1021.96
2024-04-11T01:11:28.593Z,1021.95
2024-04-11T01:12:28.580Z,1021.87
2024-04-11T01:13:28.635Z,1021.91
2024-04-11T01:14:28.680Z,1021.94
2024-04-11T01:15:28.767Z,1021.92
2024-04-11T01:16:28.777Z,1021.85
2024-04-11T01:17:29.041Z,1021.93
2024-04-11T01:18:29.010Z,1021.92
2024-04-11T01:19:28.917Z,1021.95
2024-04-11T01:20:29.039Z,1021.95
2024-04-11T01:21:29.019Z,1021.91
2024-04-11T01:22:29.072Z,1021.91
2024-04-11T01:23:29.176Z,1021.93
2024-04-11T01:24:29.186Z,1021.89
2024-04-11T01:25:29.218Z,1021.91
2024-04-11T01:26:29.361Z,1021.95
2024-04-11T01:27:29.319Z,1021.89
2024-04-11T01:28:29.370Z,1021.93
2024-04-11T01:29:29.457Z,1021.95
2024-04-11T01:30:29.495Z,1021.97
2024-04-11T01:31:29.517Z,1021.90
2024-04-11T01:32:29.837Z,1021.93
2024-04-11T01:33:29.728Z,1021.90
2024-04-11T01:34:29.854Z,1021.89
2024-04-11T01:35:29.755Z,1021.83
2024-04-11T01:36:29.771Z,1021.84
2024-04-11T01:37:29.820Z,1021.86
2024-04-11T01:38:29.866Z,1021.86
2024-04-11T01:39:29.898Z,1021.87
2024-04-11T01:40:29.948Z,1021.90
2024-04-11T01:41:30.059Z,1021.90
2024-04-11T01:42:30.059Z,1021.90
2024-04-11T01:43:30.103Z,1021.89
2024-04-11T01:44:30.616Z,1021.93
2024-04-11T01:45:30.199Z,1021.94
2024-04-11T01:46:30.306Z,1021.93
2024-04-11T01:47:30.451Z,1021.94
2024-04-11T01:48:30.428Z,1021.93
2024-04-11T01:49:30.399Z,1021.94
2024-04-11T01:50:30.480Z,1021.90
2024-04-11T01:51:30.494Z,1021.92
2024-04-11T01:52:30.546Z,1021.93
2024-04-11T01:53:30.613Z,1021.90
2024-04-11T01:54:30.639Z,1021.92
2024-04-11T01:55:30.691Z,1021.95
2024-04-11T01:56:30.744Z,1021.95
2024-04-11T01:57:30.787Z,1022.00
2024-04-11T01:58:30.832Z,1022.00
2024-04-11T01:59:30.911Z,1022.05
2024-04-11T02:00:30.933Z,1022.08
2024-04-11T02:01:30.991Z,1022.13
2024-04-11T02:02:31.102Z,1022.12
2024-04-11T02:03:31.254Z,1022.12
2024-04-11T02:04:31.161Z,1022.08
2024-04-11T02:05:31.211Z,1022.09
2024-04-11T02:06:31.226Z,1022.11
2024-04-11T02:07:31.274Z,1022.15
2024-04-11T02:08:31.382Z,1022.10
2024-04-11T02:09:31.373Z,1022.12
2024-04-11T02:10:31.417Z,1022.07
2024-04-11T02:11:31.503Z,1022.02
2024-04-11T02:12:31.658Z,1022.01
2024-04-11T02:13:31.569Z,1022.02
2024-04-11T02:14:31.704Z,1022.03
2024-04-11T02:15:31.672Z,1021.99
2024-04-11T02:16:31.749Z,1021.96
2024-04-11T02:17:31.875Z,1021.98
2024-04-11T02:18:31.935Z,1021.99
2024-04-11T02:19:31.856Z,1022.00
2024-04-11T02:20:31.970Z,1022.01
2024-04-11T02:21:31.958Z,1021.95
2024-04-11T02:22:32.009Z,1021.98
2024-04-11T02:23:32.071Z,1021.98
2024-04-11T02:24:32.121Z,1021.96
2024-04-11T02:25:32.153Z,1021.95
2024-04-11T02:26:32.219Z,1022.01
2024-04-11T02:27:32.254Z,1021.99
2024-04-11T02:28:32.299Z,1022.03
2024-04-11T02:29:32.376Z,1022.06
2024-04-11T02:30:32.411Z,1022.10
2024-04-11T02:31:32.450Z,1022.07
2024-04-11T02:32:32.656Z,1022.06
2024-04-11T02:33:32.737Z,1022.05
2024-04-11T02:34:32.890Z,1022.11
2024-04-11T02:35:32.686Z,1022.15
2024-04-11T02:36:32.692Z,1022.11
2024-04-11T02:37:32.737Z,1022.12
2024-04-11T02:38:32.823Z,1022.13
2024-04-11T02:39:32.834Z,1022.13
2024-04-11T02:40:32.904Z,1022.12
2024-04-11T02:41:32.999Z,1022.12
2024-04-11T02:42:32.982Z,1022.14
2024-04-11T02:43:33.030Z,1022.12
2024-04-11T02:44:33.120Z,1022.14
2024-04-11T02:45:33.130Z,1022.15
2024-04-11T02:46:33.180Z,1022.16
2024-04-11T02:47:33.355Z,1022.14
2024-04-11T02:48:33.360Z,1022.19
2024-04-11T02:49:33.323Z,1022.21
2024-04-11T02:50:33.414Z,1022.21
2024-04-11T02:51:33.422Z,1022.24
2024-04-11T02:52:33.468Z,1022.24
2024-04-11T02:53:33.584Z,1022.25
2024-04-11T02:54:33.567Z,1022.26
2024-04-11T02:55:33.610Z,1022.27
2024-04-11T02:56:33.744Z,1022.22
2024-04-11T02:57:33.720Z,1022.29
2024-04-11T02:58:33.757Z,1022.24
2024-04-11T02:59:33.829Z,1022.27
2024-04-11T03:00:33.952Z,1022.29
2024-04-11T03:01:34.019Z,1022.33
2024-04-11T03:02:34.001Z,1022.27
2024-04-11T03:03:34.265Z,1022.29
2024-04-11T03:04:34.153Z,1022.26
2024-04-11T03:05:34.156Z,1022.29
2024-04-11T03:06:34.150Z,1022.24
2024-04-11T03:07:34.208Z,1022.24
2024-04-11T03:08:34.263Z,1022.26
2024-04-11T03:09:34.290Z,1022.31
2024-04-11T03:10:34.342Z,1022.33
2024-04-11T03:11:34.477Z,1022.33
2024-04-11T03:12:34.522Z,1022.37
2024-04-11T03:13:34.488Z,1022.42
2024-04-11T03:14:34.574Z,1022.34
2024-04-11T03:15:34.581Z,1022.34
2024-04-11T03:16:34.672Z,1022.37
2024-04-11T03:17:34.781Z,1022.37
2024-04-11T03:18:36.967Z,1022.32
2024-04-11T03:19:34.776Z,1022.33
2024-04-11T03:20:34.877Z,1022.38
2024-04-11T03:21:34.875Z,1022.34
2024-04-11T03:22:34.926Z,1022.25
2024-04-11T03:23:34.995Z,1022.29
2024-04-11T03:24:35.030Z,1022.32
2024-04-11T03:25:35.067Z,1022.25
2024-04-11T03:26:35.146Z,1022.33
2024-04-11T03:27:35.184Z,1022.30
2024-04-11T03:28:35.219Z,1022.35
2024-04-11T03:29:35.284Z,1022.38
2024-04-11T03:30:35.315Z,1022.39
2024-04-11T03:31:37.688Z,1022.40
2024-04-11T03:32:35.749Z,1022.44
2024-04-11T03:33:35.732Z,1022.41
2024-04-11T03:34:35.562Z,1022.42
2024-04-11T03:35:35.568Z,1022.45
2024-04-11T03:36:35.608Z,1022.43
2024-04-11T03:37:35.655Z,1022.43
2024-04-11T03:38:35.871Z,1022.40
2024-04-11T03:39:35.751Z,1022.43
2024-04-11T03:40:35.805Z,1022.37
2024-04-11T03:41:35.885Z,1022.38
2024-04-11T03:42:35.909Z,1022.36
2024-04-11T03:43:35.942Z,1022.38
2024-04-11T03:44:36.084Z,1022.42
2024-04-11T03:45:36.044Z,1022.39
2024-04-11T03:46:36.148Z,1022.40
2024-04-11T03:47:36.244Z,1022.38
2024-04-11T03:48:36.401Z,1022.42
2024-04-11T03:49:36.234Z,1022.47
2024-04-11T03:50:36.332Z,1022.50
2024-04-11T03:51:36.342Z,1022.52
2024-04-11T03:52:36.378Z,1022.51
2024-04-11T03:53:36.477Z,1022.47
2024-04-11T03:54:36.489Z,1022.50
2024-04-11T03:55:36.518Z,1022.55
2024-04-11T03:56:36.647Z,1022.52
2024-04-11T03:57:36.620Z,1022.49
2024-04-11T03:58:36.672Z,1022.44
2024-04-11T03:59:36.732Z,1022.46
2024-04-11T04:00:36.774Z,1022.40
2024-04-11T04:01:36.850Z,1022.41
2024-04-11T04:02:36.984Z,1022.42
2024-04-11T04:03:37.163Z,1022.39
2024-04-11T04:04:36.997Z,1022.41
2024-04-11T04:05:37.054Z,1022.44
2024-04-11T04:06:37.322Z,1022.46
2024-04-11T04:07:38.626Z,1022.46
2024-04-11T04:08:37.354Z,1022.56
2024-04-11T04:09:37.199Z,1022.54
2024-04-11T04:10:37.252Z,1022.61
2024-04-11T04:11:37.502Z,1022.57
2024-04-11T04:12:37.623Z,1022.59
2024-04-11T04:13:37.432Z,1022.58
2024-04-11T04:14:37.471Z,1022.60
2024-04-11T04:15:37.490Z,1022.59
2024-04-11T04:16:37.632Z,1022.56
2024-04-11T04:17:37.746Z,1022.58
2024-04-11T04:18:37.720Z,1022.55
2024-04-11T04:19:37.688Z,1022.53
2024-04-11T04:20:37.751Z,1022.59
2024-04-11T04:21:37.804Z,1022.64
2024-04-11T04:22:37.835Z,1022.61
2024-04-11T04:23:37.930Z,1022.66
2024-04-11T04:24:37.930Z,1022.68
2024-04-11T04:25:39.809Z,1022.70
2024-04-11T04:26:38.296Z,1022.70
2024-04-11T04:27:38.067Z,1022.73
2024-04-11T04:28:38.121Z,1022.74
2024-04-11T04:29:38.199Z,1022.71
2024-04-11T04:30:38.213Z,1022.71
2024-04-11T04:31:38.259Z,1022.70
2024-04-11T04:32:38.417Z,1022.73
2024-04-11T04:33:38.570Z,1022.70
2024-04-11T04:34:38.507Z,1022.76
2024-04-11T04:35:38.479Z,1022.77
2024-04-11T04:36:38.508Z,1022.76
2024-04-11T04:37:38.554Z,1022.78
2024-04-11T04:38:38.619Z,1022.81
2024-04-11T04:39:38.648Z,1022.85
2024-04-11T04:40:38.698Z,1022.88
2024-04-11T04:41:38.999Z,1022.87
2024-04-11T04:42:38.799Z,1022.89
2024-04-11T04:43:38.840Z,1022.84
2024-04-11T04:44:38.890Z,1022.86
2024-04-11T04:45:38.944Z,1022.85
2024-04-11T04:46:38.986Z,1022.80
2024-04-11T04:47:39.158Z,1022.80
2024-04-11T04:48:39.262Z,1022.80
2024-04-11T04:49:39.143Z,1022.78
2024-04-11T04:50:41.631Z,1022.78
2024-04-11T04:51:39.229Z,1022.78
2024-04-11T04:52:39.301Z,1022.81
2024-04-11T04:53:39.389Z,1022.79
2024-04-11T04:54:39.385Z,1022.86
2024-04-11T04:55:39.420Z,1022.84
2024-04-11T04:56:39.514Z,1022.82
2024-04-11T04:57:39.522Z,1022.83
2024-04-11T04:58:39.569Z,1022.87
2024-04-11T04:59:39.612Z,1022.90
2024-04-11T05:00:39.743Z,1022.85
2024-04-11T05:01:39.712Z,1022.84
2024-04-11T05:02:39.870Z,1022.84
2024-04-11T05:03:40.069Z,1022.90
2024-04-11T05:04:39.905Z,1022.88
2024-04-11T05:05:39.939Z,1022.89
2024-04-11T05:06:39.964Z,1022.88
2024-04-11T05:07:40.004Z,1022.90
2024-04-11T05:08:40.071Z,1022.86
2024-04-11T05:09:40.100Z,1022.90
2024-04-11T05:10:40.158Z,1022.85
2024-04-11T05:11:40.298Z,1022.88
2024-04-11T05:12:40.324Z,1022.89
2024-04-11T05:13:40.312Z,1022.98
2024-04-11T05:14:40.525Z,1022.98
2024-04-11T05:15:40.409Z,1022.99
2024-04-11T05:16:40.556Z,1022.96
2024-04-11T05:17:40.557Z,1022.96
2024-04-11T05:18:40.623Z,1022.98
2024-04-11T05:19:40.590Z,1022.96
2024-04-11T05:20:40.693Z,1022.95
2024-04-11T05:21:41.057Z,1022.93
2024-04-11T05:22:40.737Z,1022.94
2024-04-11T05:23:40.854Z,1022.95
2024-04-11T05:24:40.828Z,1022.92
2024-04-11T05:25:40.875Z,1022.91
2024-04-11T05:26:40.937Z,1022.87
2024-04-11T05:27:40.983Z,1022.88
2024-04-11T05:28:41.596Z,1022.87
2024-04-11T05:29:41.130Z,1022.85
2024-04-11T05:30:41.140Z,1022.88
2024-04-11T05:31:41.172Z,1022.83
2024-04-11T05:32:41.373Z,1022.83
2024-04-11T05:33:41.525Z,1022.78
2024-04-11T05:34:41.593Z,1022.77
2024-04-11T05:35:41.386Z,1022.77
2024-04-11T05:36:42.456Z,1022.74
2024-04-11T05:37:41.462Z,1022.78
2024-04-11T05:38:41.591Z,1022.78
2024-04-11T05:39:41.560Z,1022.75
2024-04-11T05:40:41.607Z,1022.75
2024-04-11T05:41:41.745Z,1022.78
2024-04-11T05:42:41.705Z,1022.76
2024-04-11T05:43:41.756Z,1022.73
2024-04-11T05:44:41.832Z,1022.79
2024-04-11T05:45:41.870Z,1022.73
2024-04-11T05:46:41.954Z,1022.71
2024-04-11T05:47:42.109Z,1022.74
2024-04-11T05:48:42.114Z,1022.73
2024-04-11T05:49:42.048Z,1022.73
2024-04-11T05:50:42.110Z,1022.69
2024-04-11T05:51:42.152Z,1022.68
2024-04-11T05:52:42.204Z,1022.66
2024-04-11T05:53:42.283Z,1022.63
2024-04-11T05:54:42.307Z,1022.64
2024-04-11T05:55:42.344Z,1022.63
2024-04-11T05:56:42.579Z,1022.67
2024-04-11T05:57:42.440Z,1022.68
2024-04-11T05:58:42.492Z,1022.69
2024-04-11T05:59:42.562Z,1022.73
2024-04-11T06:00:42.689Z,1022.71
2024-04-11T06:01:42.742Z,1022.71
2024-04-11T06:02:42.736Z,1022.67
2024-04-11T06:03:42.746Z,1022.72
2024-04-11T06:04:42.911Z,1022.72
2024-04-11T06:05:42.882Z,1022.69
2024-04-11T06:06:42.893Z,1022.65
2024-04-11T06:07:42.940Z,1022.64
2024-04-11T06:08:43.038Z,1022.65
2024-04-11T06:09:43.036Z,1022.70
2024-04-11T06:10:43.098Z,1022.76
2024-04-11T06:11:43.270Z,1022.75
2024-04-11T06:12:43.231Z,1022.77
2024-04-11T06:13:43.238Z,1022.81
2024-04-11T06:14:43.317Z,1022.76
2024-04-11T06:15:43.450Z,1022.75
2024-04-11T06:16:43.403Z,1022.76
2024-04-11T06:17:43.606Z,1022.77
2024-04-11T06:18:43.595Z,1022.78
2024-04-11T06:19:43.522Z,1022.79
2024-04-11T06:20:43.593Z,1022.80
2024-04-11T06:21:43.624Z,1022.79
2024-04-11T06:22:43.671Z,1022.82
2024-04-11T06:23:43.770Z,1022.84
2024-04-11T06:24:43.779Z,1022.86
2024-04-11T06:25:43.828Z,1022.87
2024-04-11T06:26:43.903Z,1022.88
2024-04-11T06:27:43.921Z,1022.89
2024-04-11T06:28:43.972Z,1022.86
2024-04-11T06:29:44.192Z,1022.84
2024-04-11T06:30:44.086Z,1022.87
2024-04-11T06:31:44.141Z,1022.90
2024-04-11T06:32:44.327Z,1022.83
2024-04-11T06:33:44.643Z,1022.85
2024-04-11T06:34:44.436Z,1022.87
2024-04-11T06:35:44.397Z,1022.87
2024-04-11T06:36:44.369Z,1022.80
2024-04-11T06:37:44.423Z,1022.79
2024-04-11T06:38:44.500Z,1022.83
2024-04-11T06:39:44.533Z,1022.87
2024-04-11T06:40:44.598Z,1022.93
2024-04-11T06:41:44.671Z,1022.99
2024-04-11T06:42:44.673Z,1022.94
2024-04-11T06:43:44.725Z,1022.97
2024-04-11T06:44:44.793Z,1022.99
2024-04-11T06:45:44.862Z,1022.98
2024-04-11T06:46:44.905Z,1022.97
2024-04-11T06:47:50.331Z,1022.99
2024-04-11T06:48:45.162Z,1022.99
2024-04-11T06:49:45.031Z,1023.03
2024-04-11T06:50:45.138Z,1023.05
2024-04-11T06:51:45.136Z,1023.06
2024-04-11T06:52:45.246Z,1023.03
2024-04-11T06:53:45.275Z,1023.06
2024-04-11T06:54:45.302Z,1023.04
2024-04-11T06:55:45.328Z,1023.04
2024-04-11T06:56:45.419Z,1023.10
2024-04-11T06:57:45.432Z,1023.10
2024-04-11T06:58:45.479Z,1023.15
2024-04-11T06:59:45.587Z,1023.15
2024-04-11T07:00:45.631Z,1023.10
2024-04-11T07:01:45.639Z,1023.11
2024-04-11T07:02:45.711Z,1023.14
2024-04-11T07:03:45.768Z,1023.14
2024-04-11T07:04:45.787Z,1023.21
2024-04-11T07:05:45.849Z,1023.17
2024-04-11T07:06:46.875Z,1023.13
2024-04-11T07:07:45.938Z,1023.22
2024-04-11T07:08:46.011Z,1023.17
2024-04-11T07:09:46.074Z,1023.13
2024-04-11T07:10:46.115Z,1023.12
2024-04-11T07:11:46.169Z,1023.07
2024-04-11T07:12:46.285Z,1023.04
2024-04-11T07:13:46.256Z,1023.08
2024-04-11T07:14:46.347Z,1023.05
2024-04-11T07:15:46.360Z,1023.02
2024-04-11T07:16:46.546Z,1023.05
2024-04-11T07:17:46.504Z,1023.02
2024-04-11T07:18:46.836Z,1023.03
2024-04-11T07:19:46.570Z,1023.03
2024-04-11T07:20:46.652Z,1022.97
2024-04-11T07:21:46.672Z,1023.00
2024-04-11T07:22:46.725Z,1022.96
2024-04-11T07:23:46.912Z,1022.99
2024-04-11T07:24:46.829Z,1022.97
2024-04-11T07:25:46.890Z,1022.99
2024-04-11T07:26:46.959Z,1022.93
2024-04-11T07:27:47.007Z,1022.93
2024-04-11T07:28:47.070Z,1022.89
2024-04-11T07:29:47.173Z,1022.93
2024-04-11T07:30:47.147Z,1022.92
2024-04-11T07:31:47.198Z,1022.96
2024-04-11T07:32:47.401Z,1023.00
2024-04-11T07:33:47.385Z,1023.01
2024-04-11T07:34:47.363Z,1023.04
2024-04-11T07:35:47.421Z,1023.07
2024-04-11T07:36:47.469Z,1023.10
2024-04-11T07:37:47.522Z,1023.13
2024-04-11T07:38:47.690Z,1023.14
2024-04-11T07:39:47.633Z,1023.18
2024-04-11T07:40:47.673Z,1023.19
2024-04-11T07:41:48.559Z,1023.18
2024-04-11T07:42:47.784Z,1023.15
2024-04-11T07:43:47.841Z,1023.15
2024-04-11T07:44:47.931Z,1023.13
2024-04-11T07:45:47.939Z,1023.11
2024-04-11T07:46:56.704Z,1023.16
2024-04-11T07:47:56.664Z,1023.14
2024-04-11T07:48:48.175Z,1023.15
2024-04-11T07:49:48.626Z,1023.17
2024-04-11T07:50:48.248Z,1023.20
2024-04-11T07:51:48.264Z,1023.17
2024-04-11T07:52:48.315Z,1023.18
2024-04-11T07:53:48.616Z,1023.14
2024-04-11T07:54:49.228Z,1023.16
2024-04-11T07:55:48.477Z,1023.17
2024-04-11T07:56:48.574Z,1023.16
2024-04-11T07:57:48.578Z,1023.14
2024-04-11T07:58:48.635Z,1023.17
2024-04-11T08:00:48.937Z,1023.21
2024-04-11T08:01:48.937Z,1023.16
2024-04-11T08:02:48.941Z,1023.24
2024-04-11T08:03:49.010Z,1023.25
2024-04-11T08:04:48.959Z,1023.22
2024-04-11T08:05:49.057Z,1023.21
2024-04-11T08:07:49.120Z,1023.26
2024-04-11T08:08:49.189Z,1023.24
2024-04-11T08:09:49.248Z,1023.27
2024-04-11T08:10:49.362Z,1023.25
2024-04-11T08:11:49.355Z,1023.27
2024-04-11T08:12:49.384Z,1023.29
2024-04-11T08:13:49.439Z,1023.30
2024-04-11T08:14:49.543Z,1023.30
2024-04-11T08:15:49.564Z,1023.29
2024-04-11T08:16:49.697Z,1023.31
2024-04-11T08:17:49.721Z,1023.36
2024-04-11T08:18:49.717Z,1023.30
2024-04-11T08:19:56.680Z,1023.35
2024-04-11T08:20:49.899Z,1023.35
2024-04-11T08:21:49.872Z,1023.35
2024-04-11T08:22:49.924Z,1023.39
2024-04-11T08:23:50.021Z,1023.39
2024-04-11T08:24:50.035Z,1023.40
2024-04-11T08:25:50.088Z,1023.42
2024-04-11T08:26:50.193Z,1023.41
2024-04-11T08:27:50.198Z,1023.43
2024-04-11T08:28:50.254Z,1023.43
2024-04-11T08:29:50.424Z,1023.42
2024-04-11T08:30:50.362Z,1023.44
2024-04-11T08:32:50.688Z,1023.47
2024-04-11T08:33:50.738Z,1023.52
2024-04-11T08:34:50.622Z,1023.52
2024-04-11T08:35:50.691Z,1023.54
2024-04-11T08:37:50.746Z,1023.65
2024-04-11T08:38:50.962Z,1023.61
2024-04-11T08:39:50.854Z,1023.60
2024-04-11T08:40:50.921Z,1023.62
2024-04-11T08:41:51.017Z,1023.68
2024-04-11T08:42:51.033Z,1023.65
2024-04-11T08:43:51.074Z,1023.63
2024-04-11T08:44:51.191Z,1023.69
2024-04-11T08:45:51.201Z,1023.70
2024-04-11T08:46:51.270Z,1023.67
2024-04-11T08:47:51.379Z,1023.69
2024-04-11T08:48:51.460Z,1023.76
2024-04-11T08:49:52.366Z,1023.78
2024-04-11T08:50:51.556Z,1023.75
2024-04-11T08:51:51.547Z,1023.78
2024-04-11T08:52:51.591Z,1023.78
2024-04-11T08:54:00.642Z,1023.74
2024-04-11T08:54:51.693Z,1023.74
2024-04-11T08:55:51.761Z,1023.73
2024-04-11T08:56:51.844Z,1023.74
2024-04-11T08:57:51.864Z,1023.75
2024-04-11T08:58:51.924Z,1023.72
2024-04-11T08:59:52.023Z,1023.77
2024-04-11T09:00:52.044Z,1023.78
2024-04-11T09:01:52.085Z,1023.74
2024-04-11T09:02:52.689Z,1023.80
2024-04-11T09:03:52.235Z,1023.79
2024-04-11T09:05:00.396Z,1023.80
2024-04-11T09:05:53.792Z,1023.82
2024-04-11T09:06:52.371Z,1023.81
2024-04-11T09:07:52.425Z,1023.78
2024-04-11T09:08:52.593Z,1023.78
2024-04-11T09:09:52.552Z,1023.79
2024-04-11T09:10:52.635Z,1023.80
2024-04-11T09:11:52.710Z,1023.78
2024-04-11T09:12:52.709Z,1023.78
2024-04-11T09:13:52.773Z,1023.77
2024-04-11T09:14:52.922Z,1023.78
2024-04-11T09:15:52.947Z,1023.75
2024-04-11T09:16:52.935Z,1023.75
2024-04-11T09:17:53.191Z,1023.76
2024-04-11T09:18:53.054Z,1023.73
2024-04-11T09:19:53.106Z,1023.78
2024-04-11T09:20:53.224Z,1023.81
2024-04-11T09:21:53.214Z,1023.78
2024-04-11T09:22:56.571Z,1023.78
2024-04-11T09:23:53.377Z,1023.81
2024-04-11T09:27:44.761Z,1023.88
2024-04-11T09:28:44.822Z,1023.87
2024-04-11T09:29:44.932Z,1023.88
2024-04-11T09:30:44.923Z,1023.88
2024-04-11T09:31:44.985Z,1023.86
2024-04-11T09:32:45.111Z,1023.89
2024-04-11T09:33:45.260Z,1023.92
2024-04-11T09:34:45.592Z,1023.87
2024-04-11T09:35:45.250Z,1023.91
2024-04-11T09:36:45.282Z,1023.86
2024-04-11T09:37:45.324Z,1023.88
2024-04-11T09:38:45.403Z,1023.92
2024-04-11T09:39:45.452Z,1023.94
2024-04-11T09:40:45.486Z,1023.94
2024-04-11T09:41:45.592Z,1023.91
2024-04-11T09:42:45.610Z,1023.95
2024-04-11T09:43:45.665Z,1023.98
2024-04-11T09:44:45.760Z,1023.95
2024-04-11T09:45:45.777Z,1023.94
2024-04-11T09:46:47.051Z,1023.92
2024-04-11T09:47:45.972Z,1023.97
2024-04-11T09:49:46.000Z,1023.95
2024-04-11T09:50:46.115Z,1023.99
2024-04-11T09:51:46.116Z,1023.98
2024-04-11T09:52:49.544Z,1023.94
2024-04-11T09:53:46.243Z,1023.95
2024-04-11T09:54:46.290Z,1023.94
2024-04-11T09:55:46.341Z,1023.99
2024-04-11T09:56:46.467Z,1024.00
2024-04-11T09:57:46.887Z,1023.95
2024-04-11T09:58:46.518Z,1024.03
2024-04-11T09:59:47.685Z,1023.98
2024-04-11T10:00:46.647Z,1023.98
2024-04-11T10:01:46.678Z,1023.98
2024-04-11T10:02:47.011Z,1023.95
2024-04-11T10:04:29.492Z,1023.96
2024-04-11T10:05:29.564Z,1023.96
2024-04-11T10:06:29.593Z,1024.00
2024-04-11T10:07:29.642Z,1023.99
2024-04-11T10:08:29.730Z,1023.98
2024-04-11T10:09:29.758Z,1023.95
2024-04-11T10:10:29.812Z,1023.96
2024-04-11T10:11:29.924Z,1023.96
2024-04-11T10:12:30.148Z,1023.92
2024-04-11T10:13:29.994Z,1023.96
2024-04-11T10:14:30.098Z,1023.95
2024-04-11T10:15:30.910Z,1023.96
2024-04-11T10:16:30.154Z,1023.96
2024-04-11T10:17:30.438Z,1023.96
2024-04-11T10:18:30.384Z,1023.97
2024-04-11T10:19:30.458Z,1023.95
2024-04-11T10:20:30.386Z,1023.97
2024-04-11T10:21:37.147Z,1023.92
2024-04-11T10:22:30.501Z,1023.99
2024-04-11T10:23:30.809Z,1023.98
2024-04-11T10:24:31.466Z,1023.97
2024-04-11T10:25:30.676Z,1023.96
2024-04-11T10:26:32.005Z,1023.94
2024-04-11T10:27:30.796Z,1023.97
2024-04-11T10:28:30.844Z,1023.90
2024-04-11T10:29:30.908Z,1023.91
2024-04-11T10:30:30.953Z,1023.94
2024-04-11T10:31:31.013Z,1023.95
2024-04-11T10:32:31.179Z,1023.95
2024-04-11T10:33:31.675Z,1023.92
2024-04-11T10:34:31.186Z,1023.91
2024-04-11T10:35:31.350Z,1023.89
2024-04-11T10:36:31.296Z,1023.89
2024-04-11T10:37:31.581Z,1023.84
2024-04-11T10:38:31.422Z,1023.86
2024-04-11T10:39:31.467Z,1023.89
2024-04-11T10:40:31.539Z,1023.91
2024-04-11T10:41:31.598Z,1023.88
2024-04-11T10:42:31.652Z,1023.84
2024-04-11T10:43:31.696Z,1023.84
2024-04-11T10:44:31.786Z,1023.78
2024-04-11T10:45:31.810Z,1023.86
2024-04-11T10:46:31.911Z,1023.78
2024-04-11T10:47:31.968Z,1023.77
2024-04-11T10:48:32.036Z,1023.77
2024-04-11T10:49:32.035Z,1023.74
2024-04-11T10:50:32.113Z,1023.73
2024-04-11T10:51:32.142Z,1023.69
2024-04-11T10:52:32.206Z,1023.68
2024-04-11T10:53:32.294Z,1023.74
2024-04-11T10:54:32.324Z,1023.70
2024-04-11T10:55:32.377Z,1023.69
2024-04-11T10:56:32.481Z,1023.70
2024-04-11T10:57:32.492Z,1023.67
2024-04-11T10:58:32.557Z,1023.68
2024-04-11T10:59:32.631Z,1023.66
2024-04-11T11:00:32.668Z,1023.65
2024-04-11T11:01:33.958Z,1023.70
2024-04-11T11:02:32.850Z,1023.69
2024-04-11T11:03:32.991Z,1023.67
2024-04-11T11:04:32.973Z,1023.70
2024-04-11T11:05:32.975Z,1023.62
2024-04-11T11:06:34.166Z,1023.66
2024-04-11T11:07:33.485Z,1023.64
2024-04-11T11:08:33.147Z,1023.67
2024-04-11T11:09:33.178Z,1023.69
2024-04-11T11:10:33.286Z,1023.74
2024-04-11T11:11:33.399Z,1023.71
2024-04-11T11:12:33.378Z,1023.71
2024-04-11T11:13:33.407Z,1023.71
2024-04-11T11:14:33.488Z,1023.76
2024-04-11T11:15:33.523Z,1023.76
2024-04-11T11:16:33.582Z,1023.72
2024-04-11T11:17:33.716Z,1023.75
2024-04-11T11:18:33.803Z,1023.68
2024-04-11T11:19:33.771Z,1023.73
2024-04-11T11:20:33.872Z,1023.74
2024-04-11T11:21:33.875Z,1023.71
2024-04-11T11:22:33.936Z,1023.70
2024-04-11T11:23:34.017Z,1023.70
2024-04-11T11:24:34.035Z,1023.69
2024-04-11T11:25:34.163Z,1023.69
2024-04-11T11:26:34.162Z,1023.69
2024-04-11T11:27:34.515Z,1023.67
2024-04-11T11:28:34.304Z,1023.65
2024-04-11T11:29:34.341Z,1023.67
2024-04-11T11:30:34.391Z,1023.65
2024-04-11T11:31:34.443Z,1023.64
2024-04-11T11:32:34.622Z,1023.62
2024-04-11T11:33:34.658Z,1023.63
2024-04-11T11:34:34.629Z,1023.65
2024-04-11T11:35:34.700Z,1023.71
2024-04-11T11:36:34.727Z,1023.66
2024-04-11T11:37:34.781Z,1023.62
2024-04-11T11:38:34.931Z,1023.60
2024-04-11T11:39:34.973Z,1023.58
2024-04-11T11:40:34.963Z,1023.59
2024-04-11T11:41:35.041Z,1023.54
2024-04-11T11:42:35.071Z,1023.61
2024-04-11T11:43:35.137Z,1023.61
2024-04-11T11:44:35.232Z,1023.66
2024-04-11T11:45:35.246Z,1023.60
2024-04-11T11:46:35.307Z,1023.61
2024-04-11T11:47:36.030Z,1023.64
2024-04-11T11:48:35.557Z,1023.63
2024-04-11T11:49:35.514Z,1023.62
2024-04-11T11:50:35.566Z,1023.60
2024-04-11T11:51:35.609Z,1023.63
2024-04-11T11:52:35.661Z,1023.55
2024-04-11T11:53:35.772Z,1023.57
2024-04-11T11:54:35.775Z,1023.61
2024-04-11T11:55:36.281Z,1023.55
2024-04-11T11:56:35.929Z,1023.49
2024-04-11T11:57:35.954Z,1023.39
2024-04-11T11:58:36.016Z,1023.52
2024-04-11T11:59:36.127Z,1023.48
2024-04-11T12:00:36.367Z,1023.45
2024-04-11T12:01:36.188Z,1023.47
2024-04-11T12:02:36.304Z,1023.46
2024-04-11T12:03:39.499Z,1023.44
2024-04-11T12:04:36.381Z,1023.44
2024-04-11T12:05:36.442Z,1023.49
2024-04-11T12:06:36.496Z,1023.56
2024-04-11T12:07:36.558Z,1023.53
2024-04-11T12:08:36.611Z,1023.52
2024-04-11T12:09:36.650Z,1023.56
2024-04-11T12:10:36.713Z,1023.48
2024-04-11T12:11:36.814Z,1023.41
2024-04-11T12:12:44.934Z,1023.40
2024-04-11T12:13:36.952Z,1023.39
2024-04-11T12:14:37.012Z,1023.37